Terminal Aerodrome Forecast
Issued by NWS

Home | Current Version | Previous Version | Text Only | Print | Product List | Glossary Off
Versions: 1 2 3 4 5 6 7 8 9 10 11 12 13 14 15

346
FTUS41 KCLE 190545
TAFFDY
TAF
KFDY 190545Z 1906/2006 02010KT P6SM VCSH SCT015 OVC025
     FM190700 36012G20KT 4SM -RASN OVC015
      TEMPO 1908/1910 1 1/2SM -SN OVC006
     FM191000 35010G20KT 6SM -SN OVC006
     FM191200 33012G20KT P6SM OVC009
     FM191500 32015G25KT P6SM BKN025
     FM191800 32015G25KT P6SM BKN040
     FM192000 32012G20KT P6SM SCT050
     FM192300 32008KT P6SM SCT100=

USA.gov is the U.S. government's official web portal to all federal, state and local government web resources and services.